sensor_id;sensor_type;location;lat;lon;timestamp;pressure;altitude;pressure_sealevel;temperature;humidity
70555;BME280;58104;52.744;15.242;2023-02-03T00:01:40;101445.89;;;19.93;41.78
70555;BME280;58104;52.744;15.242;2023-02-03T00:04:05;101441.51;;;20.16;40.90
70555;BME280;58104;52.744;15.242;2023-02-03T00:06:31;101439.13;;;20.33;40.41
70555;BME280;58104;52.744;15.242;2023-02-03T00:08:57;101439.79;;;20.47;40.12
70555;BME280;58104;52.744;15.242;2023-02-03T00:11:22;101433.87;;;20.53;39.87
70555;BME280;58104;52.744;15.242;2023-02-03T00:13:47;101433.61;;;20.51;39.98
70555;BME280;58104;52.744;15.242;2023-02-03T00:16:12;101425.60;;;20.49;39.98
70555;BME280;58104;52.744;15.242;2023-02-03T00:18:38;101419.82;;;20.37;40.20
70555;BME280;58104;52.744;15.242;2023-02-03T00:21:03;101416.34;;;20.27;40.28
70555;BME280;58104;52.744;15.242;2023-02-03T00:23:29;101414.60;;;20.14;40.57
70555;BME280;58104;52.744;15.242;2023-02-03T00:25:54;101401.88;;;20.06;40.76
70555;BME280;58104;52.744;15.242;2023-02-03T00:28:19;101388.27;;;19.95;40.95
70555;BME280;58104;52.744;15.242;2023-02-03T00:30:45;101376.73;;;19.85;41.13
70555;BME280;58104;52.744;15.242;2023-02-03T00:33:10;101373.15;;;19.76;41.42
70555;BME280;58104;52.744;15.242;2023-02-03T00:35:37;101364.75;;;19.67;41.64
70555;BME280;58104;52.744;15.242;2023-02-03T00:38:01;101364.27;;;19.52;41.76
70555;BME280;58104;52.744;15.242;2023-02-03T00:40:27;101364.84;;;19.51;42.14
70555;BME280;58104;52.744;15.242;2023-02-03T00:42:52;101355.42;;;19.43;42.41
70555;BME280;58104;52.744;15.242;2023-02-03T00:45:18;101346.46;;;19.31;42.63
70555;BME280;58104;52.744;15.242;2023-02-03T00:47:43;101338.01;;;19.24;42.79
70555;BME280;58104;52.744;15.242;2023-02-03T00:50:09;101325.13;;;19.27;42.71
70555;BME280;58104;52.744;15.242;2023-02-03T00:52:34;101321.58;;;19.15;42.75
70555;BME280;58104;52.744;15.242;2023-02-03T00:54:59;101316.59;;;19.10;42.90
70555;BME280;58104;52.744;15.242;2023-02-03T00:57:25;101305.56;;;19.10;43.03
70555;BME280;58104;52.744;15.242;2023-02-03T00:59:50;101294.35;;;19.11;43.20
70555;BME280;58104;52.744;15.242;2023-02-03T01:02:16;101284.66;;;19.10;43.13
70555;BME280;58104;52.744;15.242;2023-02-03T01:04:41;101277.80;;;18.95;43.31
70555;BME280;58104;52.744;15.242;2023-02-03T01:07:06;101275.66;;;19.00;43.52
70555;BME280;58104;52.744;15.242;2023-02-03T01:09:33;101281.12;;;18.95;43.59
70555;BME280;58104;52.744;15.242;2023-02-03T01:11:57;101293.29;;;18.98;43.51
70555;BME280;58104;52.744;15.242;2023-02-03T01:14:23;101293.58;;;18.92;43.61
70555;BME280;58104;52.744;15.242;2023-02-03T01:16:48;101290.14;;;18.87;43.87
70555;BME280;58104;52.744;15.242;2023-02-03T01:19:13;101275.79;;;18.83;43.75
70555;BME280;58104;52.744;15.242;2023-02-03T01:21:39;101272.28;;;18.83;43.84
70555;BME280;58104;52.744;15.242;2023-02-03T01:24:04;101274.92;;;18.81;43.81
70555;BME280;58104;52.744;15.242;2023-02-03T01:26:30;101273.84;;;18.78;43.74
70555;BME280;58104;52.744;15.242;2023-02-03T01:28:57;101269.85;;;18.73;44.02
70555;BME280;58104;52.744;15.242;2023-02-03T01:31:22;101263.50;;;18.83;44.00
70555;BME280;58104;52.744;15.242;2023-02-03T01:33:47;101262.38;;;18.81;44.22
70555;BME280;58104;52.744;15.242;2023-02-03T01:36:12;101251.85;;;18.67;44.30
70555;BME280;58104;52.744;15.242;2023-02-03T01:38:38;101244.51;;;18.64;44.35
70555;BME280;58104;52.744;15.242;2023-02-03T01:41:04;101239.55;;;18.69;44.23
70555;BME280;58104;52.744;15.242;2023-02-03T01:43:30;101228.59;;;18.56;44.47
70555;BME280;58104;52.744;15.242;2023-02-03T01:45:53;101218.55;;;18.56;44.48
70555;BME280;58104;52.744;15.242;2023-02-03T01:48:19;101211.79;;;18.55;44.53
70555;BME280;58104;52.744;15.242;2023-02-03T01:50:44;101202.69;;;18.51;44.63
70555;BME280;58104;52.744;15.242;2023-02-03T01:53:10;101200.44;;;18.50;44.62
70555;BME280;58104;52.744;15.242;2023-02-03T01:55:39;101190.16;;;18.53;44.87
70555;BME280;58104;52.744;15.242;2023-02-03T01:58:03;101176.97;;;18.48;44.81
70555;BME280;58104;52.744;15.242;2023-02-03T02:00:26;101169.58;;;18.54;44.90
70555;BME280;58104;52.744;15.242;2023-02-03T02:02:52;101160.22;;;18.43;45.04
70555;BME280;58104;52.744;15.242;2023-02-03T02:05:24;101153.00;;;18.51;45.04
70555;BME280;58104;52.744;15.242;2023-02-03T02:07:43;101156.06;;;18.47;44.97
70555;BME280;58104;52.744;15.242;2023-02-03T02:10:09;101144.08;;;18.46;44.97
70555;BME280;58104;52.744;15.242;2023-02-03T02:12:33;101134.37;;;18.46;45.14
70555;BME280;58104;52.744;15.242;2023-02-03T02:14:59;101136.86;;;18.41;45.13
70555;BME280;58104;52.744;15.242;2023-02-03T02:17:36;101135.93;;;18.36;45.30
70555;BME280;58104;52.744;15.242;2023-02-03T02:22:19;101135.17;;;18.34;45.43
70555;BME280;58104;52.744;15.242;2023-02-03T02:27:08;101125.53;;;18.45;45.44
70555;BME280;58104;52.744;15.242;2023-02-03T02:32:04;101115.70;;;18.32;45.72
70555;BME280;58104;52.744;15.242;2023-02-03T02:34:29;101109.08;;;18.32;45.53
70555;BME280;58104;52.744;15.242;2023-02-03T02:36:54;101104.95;;;18.31;45.71
70555;BME280;58104;52.744;15.242;2023-02-03T02:39:18;101097.79;;;18.30;45.77
70555;BME280;58104;52.744;15.242;2023-02-03T02:41:41;101085.18;;;18.25;45.83
70555;BME280;58104;52.744;15.242;2023-02-03T02:44:10;101075.85;;;18.19;46.00
70555;BME280;58104;52.744;15.242;2023-02-03T02:46:32;101069.30;;;18.23;46.14
70555;BME280;58104;52.744;15.242;2023-02-03T02:49:00;101063.23;;;18.20;46.07
70555;BME280;58104;52.744;15.242;2023-02-03T02:51:21;101065.29;;;18.21;46.28
70555;BME280;58104;52.744;15.242;2023-02-03T02:53:50;101070.15;;;18.25;46.24
70555;BME280;58104;52.744;15.242;2023-02-03T02:56:11;101065.29;;;18.21;46.29
70555;BME280;58104;52.744;15.242;2023-02-03T02:58:38;101066.30;;;18.23;46.37
70555;BME280;58104;52.744;15.242;2023-02-03T03:01:02;101061.75;;;18.17;46.51
70555;BME280;58104;52.744;15.242;2023-02-03T03:03:27;101057.42;;;18.23;46.42
70555;BME280;58104;52.744;15.242;2023-02-03T03:05:54;101056.79;;;18.19;46.58
70555;BME280;58104;52.744;15.242;2023-02-03T03:08:20;101059.23;;;18.19;46.82
70555;BME280;58104;52.744;15.242;2023-02-03T03:10:43;101057.54;;;18.20;46.94
70555;BME280;58104;52.744;15.242;2023-02-03T03:13:12;101047.50;;;18.18;46.84
70555;BME280;58104;52.744;15.242;2023-02-03T03:15:35;101037.06;;;18.24;46.73
70555;BME280;58104;52.744;15.242;2023-02-03T03:18:03;101035.16;;;18.23;47.08
70555;BME280;58104;52.744;15.242;2023-02-03T03:20:26;101039.59;;;18.23;47.30
70555;BME280;58104;52.744;15.242;2023-02-03T03:22:55;101040.85;;;18.17;47.36
70555;BME280;58104;52.744;15.242;2023-02-03T03:25:17;101035.41;;;18.18;47.61
70555;BME280;58104;52.744;15.242;2023-02-03T03:27:47;101029.03;;;18.14;47.55
70555;BME280;58104;52.744;15.242;2023-02-03T03:30:10;101023.96;;;18.20;47.84
70555;BME280;58104;52.744;15.242;2023-02-03T03:32:32;101014.58;;;18.21;47.65
70555;BME280;58104;52.744;15.242;2023-02-03T03:34:58;101002.77;;;18.14;47.83
70555;BME280;58104;52.744;15.242;2023-02-03T03:37:30;100996.02;;;18.26;47.75
70555;BME280;58104;52.744;15.242;2023-02-03T03:39:54;100983.58;;;18.18;47.77
70555;BME280;58104;52.744;15.242;2023-02-03T03:42:21;100977.93;;;18.18;47.84
70555;BME280;58104;52.744;15.242;2023-02-03T03:44:46;100979.13;;;18.28;47.83
70555;BME280;58104;52.744;15.242;2023-02-03T03:47:11;100982.45;;;18.14;48.21
70555;BME280;58104;52.744;15.242;2023-02-03T03:49:32;100983.34;;;18.12;48.39
70555;BME280;58104;52.744;15.242;2023-02-03T03:51:58;100983.83;;;18.14;48.41
70555;BME280;58104;52.744;15.242;2023-02-03T03:54:22;100976.33;;;18.18;48.29
70555;BME280;58104;52.744;15.242;2023-02-03T03:56:51;100973.20;;;18.17;48.31
70555;BME280;58104;52.744;15.242;2023-02-03T03:59:13;100957.60;;;18.18;48.27
70555;BME280;58104;52.744;15.242;2023-02-03T04:01:38;100941.00;;;18.16;47.98
70555;BME280;58104;52.744;15.242;2023-02-03T04:04:06;100928.47;;;18.15;48.17
70555;BME280;58104;52.744;15.242;2023-02-03T04:06:28;100920.78;;;18.18;48.27
70555;BME280;58104;52.744;15.242;2023-02-03T04:08:53;100917.69;;;18.10;48.78
70555;BME280;58104;52.744;15.242;2023-02-03T04:11:18;100910.23;;;18.05;48.73
70555;BME280;58104;52.744;15.242;2023-02-03T04:13:43;100898.20;;;18.12;48.57
70555;BME280;58104;52.744;15.242;2023-02-03T04:16:09;100887.43;;;18.11;48.69
70555;BME280;58104;52.744;15.242;2023-02-03T04:18:34;100883.67;;;18.07;48.56
70555;BME280;58104;52.744;15.242;2023-02-03T04:21:00;100881.82;;;18.10;48.75
70555;BME280;58104;52.744;15.242;2023-02-03T04:23:25;100877.94;;;18.15;48.61
70555;BME280;58104;52.744;15.242;2023-02-03T04:25:50;100877.27;;;18.08;48.66
70555;BME280;58104;52.744;15.242;2023-02-03T04:28:16;100874.28;;;18.12;48.69
70555;BME280;58104;52.744;15.242;2023-02-03T04:30:41;100864.73;;;18.16;48.58
70555;BME280;58104;52.744;15.242;2023-02-03T04:33:06;100854.18;;;18.13;48.62
70555;BME280;58104;52.744;15.242;2023-02-03T04:35:32;100849.26;;;18.12;48.62
70555;BME280;58104;52.744;15.242;2023-02-03T04:37:57;100849.76;;;18.18;48.59
70555;BME280;58104;52.744;15.242;2023-02-03T04:40:22;100839.60;;;18.11;48.83
70555;BME280;58104;52.744;15.242;2023-02-03T04:42:48;100843.46;;;18.11;48.85
70555;BME280;58104;52.744;15.242;2023-02-03T04:45:13;100838.66;;;18.03;48.90
70555;BME280;58104;52.744;15.242;2023-02-03T04:47:39;100827.68;;;18.12;48.75
70555;BME280;58104;52.744;15.242;2023-02-03T04:50:05;100815.11;;;18.08;48.67
70555;BME280;58104;52.744;15.242;2023-02-03T04:52:30;100813.15;;;18.09;48.86
70555;BME280;58104;52.744;15.242;2023-02-03T04:54:55;100798.93;;;18.04;48.83
70555;BME280;58104;52.744;15.242;2023-02-03T04:57:20;100791.97;;;18.01;48.75
70555;BME280;58104;52.744;15.242;2023-02-03T04:59:46;100779.96;;;18.10;48.57
70555;BME280;58104;52.744;15.242;2023-02-03T05:02:11;100772.13;;;18.06;48.64
70555;BME280;58104;52.744;15.242;2023-02-03T05:04:36;100765.56;;;18.13;48.73
70555;BME280;58104;52.744;15.242;2023-02-03T05:07:02;100756.10;;;18.14;48.76
70555;BME280;58104;52.744;15.242;2023-02-03T05:09:27;100748.01;;;18.12;48.42
70555;BME280;58104;52.744;15.242;2023-02-03T05:11:53;100733.14;;;18.15;48.61
70555;BME280;58104;52.744;15.242;2023-02-03T05:14:19;100725.36;;;18.12;48.60
70555;BME280;58104;52.744;15.242;2023-02-03T05:16:44;100721.97;;;18.07;48.92
70555;BME280;58104;52.744;15.242;2023-02-03T05:19:09;100704.53;;;18.11;48.99
70555;BME280;58104;52.744;15.242;2023-02-03T05:21:34;100699.09;;;18.14;48.78
70555;BME280;58104;52.744;15.242;2023-02-03T05:24:00;100700.21;;;18.09;48.78
70555;BME280;58104;52.744;15.242;2023-02-03T05:26:25;100693.05;;;18.14;48.83
70555;BME280;58104;52.744;15.242;2023-02-03T05:28:51;100692.99;;;18.22;48.70
70555;BME280;58104;52.744;15.242;2023-02-03T05:31:16;100688.14;;;18.14;48.68
70555;BME280;58104;52.744;15.242;2023-02-03T05:33:42;100679.11;;;18.11;48.96
70555;BME280;58104;52.744;15.242;2023-02-03T05:36:08;100672.48;;;18.17;48.85
70555;BME280;58104;52.744;15.242;2023-02-03T05:38:32;100663.82;;;18.14;48.78
70555;BME280;58104;52.744;15.242;2023-02-03T05:40:58;100663.19;;;18.22;48.82
70555;BME280;58104;52.744;15.242;2023-02-03T05:43:23;100665.99;;;18.13;48.80
70555;BME280;58104;52.744;15.242;2023-02-03T05:45:48;100654.05;;;18.12;48.74
70555;BME280;58104;52.744;15.242;2023-02-03T05:48:14;100651.00;;;18.09;48.63
70555;BME280;58104;52.744;15.242;2023-02-03T05:50:39;100638.21;;;18.19;48.94
70555;BME280;58104;52.744;15.242;2023-02-03T05:53:06;100620.87;;;18.12;48.80
70555;BME280;58104;52.744;15.242;2023-02-03T05:55:31;100603.36;;;18.16;49.02
70555;BME280;58104;52.744;15.242;2023-02-03T05:57:57;100591.73;;;17.99;49.11
70555;BME280;58104;52.744;15.242;2023-02-03T06:00:22;100578.45;;;18.00;49.35
70555;BME280;58104;52.744;15.242;2023-02-03T06:02:50;100569.95;;;17.99;49.14
70555;BME280;58104;52.744;15.242;2023-02-03T06:05:12;100572.80;;;17.94;49.15
70555;BME280;58104;52.744;15.242;2023-02-03T06:07:37;100560.98;;;18.10;49.24
70555;BME280;58104;52.744;15.242;2023-02-03T06:10:03;100560.73;;;17.98;49.00
70555;BME280;58104;52.744;15.242;2023-02-03T06:12:28;100559.82;;;18.11;49.84
70555;BME280;58104;52.744;15.242;2023-02-03T06:14:53;100547.29;;;18.15;50.14
70555;BME280;58104;52.744;15.242;2023-02-03T06:17:19;100553.90;;;18.00;49.27
70555;BME280;58104;52.744;15.242;2023-02-03T06:19:44;100553.34;;;18.04;49.30
70555;BME280;58104;52.744;15.242;2023-02-03T06:22:09;100538.77;;;18.05;49.60
70555;BME280;58104;52.744;15.242;2023-02-03T06:24:35;100531.79;;;18.18;49.57
70555;BME280;58104;52.744;15.242;2023-02-03T06:27:00;100526.79;;;18.17;49.75
70555;BME280;58104;52.744;15.242;2023-02-03T06:29:26;100516.43;;;18.21;49.43
70555;BME280;58104;52.744;15.242;2023-02-03T06:31:51;100508.96;;;18.14;49.44
70555;BME280;58104;52.744;15.242;2023-02-03T06:34:17;100503.89;;;18.18;48.99
70555;BME280;58104;52.744;15.242;2023-02-03T06:36:42;100495.02;;;18.17;49.28
70555;BME280;58104;52.744;15.242;2023-02-03T06:39:07;100485.67;;;18.15;49.31
70555;BME280;58104;52.744;15.242;2023-02-03T06:41:33;100480.57;;;18.14;49.09
70555;BME280;58104;52.744;15.242;2023-02-03T06:43:58;100465.97;;;18.14;49.18
70555;BME280;58104;52.744;15.242;2023-02-03T06:46:23;100458.85;;;18.23;49.16
70555;BME280;58104;52.744;15.242;2023-02-03T06:48:49;100454.30;;;18.14;49.07
70555;BME280;58104;52.744;15.242;2023-02-03T06:51:14;100441.33;;;18.11;48.99
70555;BME280;58104;52.744;15.242;2023-02-03T06:53:40;100432.93;;;18.08;48.87
70555;BME280;58104;52.744;15.242;2023-02-03T06:56:05;100414.64;;;18.10;48.78
70555;BME280;58104;52.744;15.242;2023-02-03T06:58:31;100408.75;;;18.02;48.95
70555;BME280;58104;52.744;15.242;2023-02-03T07:00:56;100409.72;;;18.04;49.26
70555;BME280;58104;52.744;15.242;2023-02-03T07:03:22;100408.20;;;18.18;49.10
70555;BME280;58104;52.744;15.242;2023-02-03T07:05:47;100398.90;;;18.10;48.87
70555;BME280;58104;52.744;15.242;2023-02-03T07:08:12;100396.37;;;18.10;48.83
70555;BME280;58104;52.744;15.242;2023-02-03T07:10:38;100392.77;;;18.18;48.91
70555;BME280;58104;52.744;15.242;2023-02-03T07:13:04;100377.05;;;18.19;48.67
70555;BME280;58104;52.744;15.242;2023-02-03T07:15:29;100367.80;;;18.21;48.62
70555;BME280;58104;52.744;15.242;2023-02-03T07:17:54;100371.86;;;18.19;48.67
70555;BME280;58104;52.744;15.242;2023-02-03T07:20:21;100375.66;;;18.21;48.76
70555;BME280;58104;52.744;15.242;2023-02-03T07:22:50;100360.34;;;18.22;48.72
70555;BME280;58104;52.744;15.242;2023-02-03T07:25:10;100348.23;;;18.17;48.75
70555;BME280;58104;52.744;15.242;2023-02-03T07:27:36;100347.13;;;18.15;48.71
70555;BME280;58104;52.744;15.242;2023-02-03T07:30:01;100323.67;;;18.21;48.56
70555;BME280;58104;52.744;15.242;2023-02-03T07:32:27;100318.18;;;18.16;48.51
70555;BME280;58104;52.744;15.242;2023-02-03T07:34:52;100333.80;;;18.19;48.81
70555;BME280;58104;52.744;15.242;2023-02-03T07:37:17;100329.09;;;18.16;48.87
70555;BME280;58104;52.744;15.242;2023-02-03T07:39:43;100307.83;;;18.26;48.67
70555;BME280;58104;52.744;15.242;2023-02-03T07:42:08;100314.63;;;18.16;48.90
70555;BME280;58104;52.744;15.242;2023-02-03T07:44:34;100315.46;;;18.32;49.42
70555;BME280;58104;52.744;15.242;2023-02-03T07:46:59;100311.67;;;18.19;49.71
70555;BME280;58104;52.744;15.242;2023-02-03T07:49:25;100298.03;;;18.27;49.68
70555;BME280;58104;52.744;15.242;2023-02-03T07:51:50;100277.97;;;18.25;49.61
70555;BME280;58104;52.744;15.242;2023-02-03T07:54:15;100278.74;;;18.32;49.25
70555;BME280;58104;52.744;15.242;2023-02-03T07:56:41;100273.22;;;18.27;48.87
70555;BME280;58104;52.744;15.242;2023-02-03T07:59:06;100266.89;;;18.29;48.70
70555;BME280;58104;52.744;15.242;2023-02-03T08:01:32;100257.16;;;18.46;48.19
70555;BME280;58104;52.744;15.242;2023-02-03T08:03:57;100244.20;;;18.60;47.58
70555;BME280;58104;52.744;15.242;2023-02-03T08:06:23;100238.79;;;18.63;46.59
70555;BME280;58104;52.744;15.242;2023-02-03T08:08:48;100228.15;;;18.78;45.88
70555;BME280;58104;52.744;15.242;2023-02-03T08:11:13;100224.22;;;18.73;45.69
70555;BME280;58104;52.744;15.242;2023-02-03T08:13:39;100218.57;;;18.35;45.40
70555;BME280;58104;52.744;15.242;2023-02-03T08:16:05;100210.52;;;18.11;44.55
70555;BME280;58104;52.744;15.242;2023-02-03T08:18:30;100209.08;;;18.11;44.74
70555;BME280;58104;52.744;15.242;2023-02-03T08:20:55;100203.53;;;18.12;40.57
70555;BME280;58104;52.744;15.242;2023-02-03T08:23:21;100193.26;;;17.94;39.17
70555;BME280;58104;52.744;15.242;2023-02-03T08:25:49;100179.60;;;17.57;40.48
70555;BME280;58104;52.744;15.242;2023-02-03T08:28:11;100171.90;;;17.40;38.09
70555;BME280;58104;52.744;15.242;2023-02-03T08:30:37;100157.96;;;17.20;38.77
70555;BME280;58104;52.744;15.242;2023-02-03T08:33:02;100157.12;;;17.02;38.54
70555;BME280;58104;52.744;15.242;2023-02-03T08:35:27;100151.04;;;17.35;38.38
70555;BME280;58104;52.744;15.242;2023-02-03T08:37:53;100138.92;;;17.10;37.08
70555;BME280;58104;52.744;15.242;2023-02-03T08:40:18;100139.77;;;16.82;37.21
70555;BME280;58104;52.744;15.242;2023-02-03T08:42:44;100123.58;;;16.52;37.92
70555;BME280;58104;52.744;15.242;2023-02-03T08:45:09;100118.90;;;16.74;37.96
70555;BME280;58104;52.744;15.242;2023-02-03T08:47:35;100111.45;;;16.97;38.14
70555;BME280;58104;52.744;15.242;2023-02-03T08:50:00;100103.20;;;16.84;38.74
70555;BME280;58104;52.744;15.242;2023-02-03T08:52:25;100090.79;;;16.47;40.17
70555;BME280;58104;52.744;15.242;2023-02-03T08:54:51;100090.60;;;17.19;40.86
70555;BME280;58104;52.744;15.242;2023-02-03T08:57:16;100085.35;;;17.36;41.19
70555;BME280;58104;52.744;15.242;2023-02-03T08:59:43;100071.48;;;17.60;41.36
70555;BME280;58104;52.744;15.242;2023-02-03T09:02:12;100067.27;;;17.67;41.22
70555;BME280;58104;52.744;15.242;2023-02-03T09:04:33;100058.50;;;17.87;41.18
70555;BME280;58104;52.744;15.242;2023-02-03T09:07:00;100048.21;;;17.92;41.18
70555;BME280;58104;52.744;15.242;2023-02-03T09:09:24;100044.68;;;18.18;41.43
70555;BME280;58104;52.744;15.242;2023-02-03T09:11:49;100051.42;;;18.10;41.50
70555;BME280;58104;52.744;15.242;2023-02-03T09:14:14;100040.09;;;18.17;41.44
70555;BME280;58104;52.744;15.242;2023-02-03T09:16:40;100034.15;;;18.22;41.45
70555;BME280;58104;52.744;15.242;2023-02-03T09:19:05;100023.02;;;18.30;41.54
70555;BME280;58104;52.744;15.242;2023-02-03T09:21:31;100018.74;;;18.28;41.63
70555;BME280;58104;52.744;15.242;2023-02-03T09:24:00;100019.12;;;18.30;41.65
70555;BME280;58104;52.744;15.242;2023-02-03T09:26:21;100013.34;;;18.31;41.70
70555;BME280;58104;52.744;15.242;2023-02-03T09:28:47;100011.90;;;18.35;41.73
70555;BME280;58104;52.744;15.242;2023-02-03T09:31:14;99993.76;;;18.34;41.77
70555;BME280;58104;52.744;15.242;2023-02-03T09:33:38;100005.51;;;18.40;41.76
70555;BME280;58104;52.744;15.242;2023-02-03T09:36:04;99996.78;;;18.57;42.61
70555;BME280;58104;52.744;15.242;2023-02-03T09:38:30;99990.65;;;18.75;42.31
70555;BME280;58104;52.744;15.242;2023-02-03T09:40:56;99991.12;;;18.95;42.01
70555;BME280;58104;52.744;15.242;2023-02-03T09:43:30;99978.64;;;19.06;41.81
70555;BME280;58104;52.744;15.242;2023-02-03T09:45:45;99974.99;;;19.09;41.63
70555;BME280;58104;52.744;15.242;2023-02-03T09:48:14;99984.52;;;19.03;41.82
70555;BME280;58104;52.744;15.242;2023-02-03T09:50:37;99975.10;;;19.05;42.46
70555;BME280;58104;52.744;15.242;2023-02-03T09:53:05;99973.05;;;19.05;42.60
70555;BME280;58104;52.744;15.242;2023-02-03T09:55:32;99960.80;;;19.06;43.14
70555;BME280;58104;52.744;15.242;2023-02-03T09:57:57;99942.81;;;19.08;43.24
70555;BME280;58104;52.744;15.242;2023-02-03T10:00:21;99944.53;;;19.16;43.10
70555;BME280;58104;52.744;15.242;2023-02-03T10:02:53;99943.87;;;19.27;43.17
70555;BME280;58104;52.744;15.242;2023-02-03T10:05:14;99946.78;;;19.39;43.11
70555;BME280;58104;52.744;15.242;2023-02-03T10:07:40;99921.60;;;19.52;43.11
70555;BME280;58104;52.744;15.242;2023-02-03T10:10:06;99950.80;;;19.64;42.96
70555;BME280;58104;52.744;15.242;2023-02-03T10:14:59;99918.64;;;19.56;43.21
70555;BME280;58104;52.744;15.242;2023-02-03T10:17:24;99908.26;;;19.47;43.45
70555;BME280;58104;52.744;15.242;2023-02-03T10:19:44;99913.94;;;19.48;43.45
70555;BME280;58104;52.744;15.242;2023-02-03T10:22:12;99901.19;;;19.56;43.38
70555;BME280;58104;52.744;15.242;2023-02-03T10:24:38;99897.47;;;19.53;43.55
70555;BME280;58104;52.744;15.242;2023-02-03T10:26:57;99894.24;;;19.48;43.62
70555;BME280;58104;52.744;15.242;2023-02-03T10:29:28;99894.14;;;19.58;43.50
70555;BME280;58104;52.744;15.242;2023-02-03T10:31:48;99878.00;;;19.75;43.36
70555;BME280;58104;52.744;15.242;2023-02-03T10:34:14;99876.41;;;19.69;43.44
70555;BME280;58104;52.744;15.242;2023-02-03T10:36:47;99886.09;;;19.73;43.13
70555;BME280;58104;52.744;15.242;2023-02-03T10:39:13;99862.37;;;19.61;43.55
70555;BME280;58104;52.744;15.242;2023-02-03T10:41:30;99862.75;;;19.63;43.59
70555;BME280;58104;52.744;15.242;2023-02-03T10:43:55;99848.68;;;19.63;43.69
70555;BME280;58104;52.744;15.242;2023-02-03T10:46:26;99849.21;;;19.72;43.61
70555;BME280;58104;52.744;15.242;2023-02-03T10:48:46;99864.12;;;19.70;43.59
70555;BME280;58104;52.744;15.242;2023-02-03T10:51:17;99838.65;;;19.84;43.54
70555;BME280;58104;52.744;15.242;2023-02-03T10:53:36;99853.14;;;19.86;43.49
70555;BME280;58104;52.744;15.242;2023-02-03T10:56:04;99842.71;;;19.89;43.65
70555;BME280;58104;52.744;15.242;2023-02-03T10:58:29;99839.97;;;19.79;43.34
70555;BME280;58104;52.744;15.242;2023-02-03T11:00:54;99837.82;;;19.68;43.51
70555;BME280;58104;52.744;15.242;2023-02-03T11:03:22;99825.27;;;19.51;43.64
70555;BME280;58104;52.744;15.242;2023-02-03T11:05:43;99809.92;;;19.65;43.75
70555;BME280;58104;52.744;15.242;2023-02-03T11:08:13;99807.45;;;19.76;43.53
70555;BME280;58104;52.744;15.242;2023-02-03T11:10:36;99821.29;;;19.76;43.73
70555;BME280;58104;52.744;15.242;2023-02-03T11:15:25;99844.22;;;19.79;43.79
70555;BME280;58104;52.744;15.242;2023-02-03T11:17:51;99836.97;;;19.82;43.71
70555;BME280;58104;52.744;15.242;2023-02-03T11:20:16;99849.04;;;19.89;43.73
70555;BME280;58104;52.744;15.242;2023-02-03T11:22:42;99846.23;;;19.93;43.87
70555;BME280;58104;52.744;15.242;2023-02-03T11:25:15;99849.37;;;19.85;44.01
70555;BME280;58104;52.744;15.242;2023-02-03T11:27:32;99834.36;;;19.93;44.17
70555;BME280;58104;52.744;15.242;2023-02-03T11:30:07;99834.50;;;20.00;44.28
70555;BME280;58104;52.744;15.242;2023-02-03T11:32:28;99832.52;;;19.91;44.46
70555;BME280;58104;52.744;15.242;2023-02-03T11:34:55;99831.60;;;19.91;44.38
70555;BME280;58104;52.744;15.242;2023-02-03T11:39:39;99825.40;;;20.15;43.68
70555;BME280;58104;52.744;15.242;2023-02-03T11:44:30;99817.97;;;20.40;43.08
70555;BME280;58104;52.744;15.242;2023-02-03T11:46:59;99817.10;;;20.48;43.02
70555;BME280;58104;52.744;15.242;2023-02-03T11:49:33;99817.81;;;20.49;43.01
70555;BME280;58104;52.744;15.242;2023-02-03T11:51:52;99819.61;;;20.47;43.11
70555;BME280;58104;52.744;15.242;2023-02-03T11:54:20;99853.12;;;20.33;43.43
70555;BME280;58104;52.744;15.242;2023-02-03T12:04:01;99856.55;;;20.44;43.61
70555;BME280;58104;52.744;15.242;2023-02-03T12:06:31;99857.89;;;20.40;43.66
70555;BME280;58104;52.744;15.242;2023-02-03T12:08:55;99849.29;;;20.41;43.77
70555;BME280;58104;52.744;15.242;2023-02-03T12:11:18;99854.59;;;20.33;42.82
70555;BME280;58104;52.744;15.242;2023-02-03T12:13:47;99863.27;;;19.90;42.38
70555;BME280;58104;52.744;15.242;2023-02-03T12:16:12;99827.38;;;19.75;41.73
70555;BME280;58104;52.744;15.242;2023-02-03T12:18:32;99855.86;;;20.08;42.62
70555;BME280;58104;52.744;15.242;2023-02-03T12:21:00;99847.60;;;20.24;42.70
70555;BME280;58104;52.744;15.242;2023-02-03T12:23:27;99852.65;;;20.30;42.56
70555;BME280;58104;52.744;15.242;2023-02-03T12:25:53;99846.91;;;20.35;42.85
70555;BME280;58104;52.744;15.242;2023-02-03T12:28:17;99858.92;;;20.31;42.94
70555;BME280;58104;52.744;15.242;2023-02-03T12:30:37;99857.57;;;20.31;43.07
70555;BME280;58104;52.744;15.242;2023-02-03T12:33:01;99864.96;;;20.34;43.11
70555;BME280;58104;52.744;15.242;2023-02-03T12:35:28;99847.63;;;20.33;43.22
70555;BME280;58104;52.744;15.242;2023-02-03T12:37:53;99872.36;;;20.28;43.49
70555;BME280;58104;52.744;15.242;2023-02-03T12:40:19;99876.70;;;20.27;43.66
70555;BME280;58104;52.744;15.242;2023-02-03T12:42:42;99875.09;;;20.29;43.69
70555;BME280;58104;52.744;15.242;2023-02-03T12:45:10;99856.60;;;20.33;43.76
70555;BME280;58104;52.744;15.242;2023-02-03T12:47:34;99871.66;;;20.33;43.77
70555;BME280;58104;52.744;15.242;2023-02-03T12:49:59;99887.90;;;20.23;43.89
70555;BME280;58104;52.744;15.242;2023-02-03T12:52:25;99891.89;;;20.19;43.95
70555;BME280;58104;52.744;15.242;2023-02-03T12:54:51;99888.76;;;20.14;44.03
70555;BME280;58104;52.744;15.242;2023-02-03T12:57:18;99896.84;;;20.09;43.77